Time;durP1;ratioP1;P1;durP2;ratioP2;P2;SDS_P1;SDS_P2;PMS_P1;PMS_P2;Temp;Humidity;BMP_temperature;BMP_pressure;BME280_temperature;BME280_humidity;BME280_pressure;Samples;Min_cycle;Max_cycle;Signal;HPM_P1;HPM_P2
2022/07/06 00:01:25;;;;;;;2.47;1.40;;;;;;;16.72;68.09;96482.13;5012109;28;24488;-77
2022/07/06 00:03:52;;;;;;;2.50;1.48;;;;;;;16.64;67.88;96480.94;5012100;28;24441;-76
2022/07/06 00:06:18;;;;;;;2.13;1.30;;;;;;;16.61;68.19;96472.47;5008586;28;24460;-77
2022/07/06 00:08:45;;;;;;;1.90;1.50;;;;;;;16.71;68.35;96473.47;5011381;28;25064;-78
2022/07/06 00:11:13;;;;;;;4.65;1.30;;;;;;;16.83;67.73;96474.34;5012019;28;24439;-77
2022/07/06 00:13:39;;;;;;;3.22;1.40;;;;;;;16.80;67.39;96470.19;5004068;28;24435;-77
2022/07/06 00:16:06;;;;;;;2.38;1.33;;;;;;;16.69;67.48;96478.00;5011702;28;24970;-77
2022/07/06 00:18:32;;;;;;;3.28;1.30;;;;;;;16.33;69.06;96468.50;5011424;28;24447;-77
2022/07/06 00:20:59;;;;;;;4.40;1.23;;;;;;;16.20;69.51;96469.44;5011757;28;24506;-77
2022/07/06 00:23:25;;;;;;;3.10;1.33;;;;;;;16.12;69.83;96468.31;5009834;28;24511;-77
2022/07/06 00:25:52;;;;;;;2.83;1.52;;;;;;;16.04;70.30;96470.66;5011739;28;24441;-77
2022/07/06 00:28:20;;;;;;;2.13;1.48;;;;;;;16.12;69.81;96476.97;5011132;28;24435;-77
2022/07/06 00:30:46;;;;;;;2.50;1.42;;;;;;;16.08;69.94;96472.09;5011818;28;24436;-77
2022/07/06 00:33:13;;;;;;;3.58;1.30;;;;;;;16.15;70.28;96471.53;5011570;28;24440;-76
2022/07/06 00:35:39;;;;;;;2.25;1.60;;;;;;;15.88;70.87;96473.56;5001260;28;24807;-77
2022/07/06 00:38:06;;;;;;;3.67;1.42;;;;;;;15.95;70.72;96472.19;5011336;28;24436;-77
2022/07/06 00:40:32;;;;;;;1.60;1.20;;;;;;;16.11;69.70;96467.50;5011349;28;24440;-77
2022/07/06 00:42:59;;;;;;;2.78;1.10;;;;;;;16.27;68.62;96472.41;5011743;28;24440;-77
2022/07/06 00:45:27;;;;;;;4.32;1.40;;;;;;;16.23;67.93;96468.34;5011345;28;24441;-76
2022/07/06 00:47:53;;;;;;;2.40;1.30;;;;;;;16.14;69.03;96477.72;5011089;28;24532;-76
2022/07/06 00:50:21;;;;;;;3.90;1.67;;;;;;;16.22;68.29;96471.91;5011478;28;24483;-77
2022/07/06 00:52:50;;;;;;;3.20;1.48;;;;;;;16.27;67.74;96471.56;5011189;28;24463;-78
2022/07/06 00:55:19;;;;;;;1.42;1.23;;;;;;;16.36;68.59;96470.91;5010597;28;24448;-77
2022/07/06 00:57:45;;;;;;;1.85;1.20;;;;;;;16.37;69.17;96468.16;5010756;28;24865;-76
2022/07/06 01:00:14;;;;;;;2.00;1.20;;;;;;;16.36;69.11;96463.06;5011189;28;24522;-76
2022/07/06 01:02:42;;;;;;;2.20;1.40;;;;;;;16.38;68.61;96463.75;5009826;28;24507;-77
2022/07/06 01:05:11;;;;;;;2.03;1.35;;;;;;;16.26;68.06;96462.91;5010648;28;24447;-77
2022/07/06 01:07:39;;;;;;;2.50;1.13;;;;;;;16.30;67.95;96460.91;5010371;28;25031;-77
2022/07/06 01:10:07;;;;;;;9.73;1.80;;;;;;;16.43;66.86;96462.47;5010677;28;24795;-77
2022/07/06 01:12:36;;;;;;;3.78;1.60;;;;;;;16.45;66.68;96470.19;5010833;28;24440;-77
2022/07/06 01:15:04;;;;;;;1.85;1.20;;;;;;;16.44;67.14;96471.16;5010787;28;24455;-77
2022/07/06 01:17:31;;;;;;;1.80;1.30;;;;;;;16.41;67.22;96466.16;5010395;28;24445;-76
2022/07/06 01:19:59;;;;;;;1.77;1.25;;;;;;;16.35;67.64;96464.00;5010823;28;24482;-77
2022/07/06 01:22:27;;;;;;;3.10;1.50;;;;;;;16.21;67.73;96463.25;5010426;28;24447;-77
2022/07/06 01:24:53;;;;;;;2.75;1.63;;;;;;;15.96;68.68;96455.56;5010631;28;24483;-77
2022/07/06 01:27:20;;;;;;;3.35;1.50;;;;;;;15.64;70.20;96453.47;5009670;28;24499;-77
2022/07/06 01:29:46;;;;;;;3.80;1.55;;;;;;;15.48;71.26;96458.13;5010726;28;24436;-76
2022/07/06 01:32:12;;;;;;;3.83;1.60;;;;;;;15.43;71.84;96445.41;5010661;28;24436;-77
2022/07/06 01:34:41;;;;;;;2.63;1.20;;;;;;;15.41;71.95;96446.44;5002524;28;24444;-76
2022/07/06 01:37:07;;;;;;;4.35;1.63;;;;;;;15.39;72.34;96445.75;5010204;28;24490;-78
2022/07/06 01:39:35;;;;;;;6.00;1.33;;;;;;;15.38;72.16;96452.72;5010365;28;24447;-77
2022/07/06 01:42:02;;;;;;;3.35;1.38;;;;;;;15.33;72.80;96457.44;5010449;28;24460;-77
2022/07/06 01:44:28;;;;;;;2.55;1.60;;;;;;;15.44;72.42;96447.06;5010458;28;24439;-77
2022/07/06 01:46:54;;;;;;;2.00;1.50;;;;;;;15.46;72.77;96449.56;5009975;28;24502;-76
2022/07/06 01:49:21;;;;;;;2.47;1.25;;;;;;;15.59;72.89;96457.38;5010336;28;24440;-77
2022/07/06 01:51:47;;;;;;;2.90;1.42;;;;;;;15.66;72.82;96450.78;5010323;28;24439;-77
2022/07/06 01:54:14;;;;;;;5.28;1.40;;;;;;;15.60;72.49;96451.19;5010264;28;24837;-80
2022/07/06 01:56:42;;;;;;;4.15;1.55;;;;;;;15.37;73.16;96450.22;5010099;28;24440;-78
2022/07/06 01:59:09;;;;;;;4.15;1.65;;;;;;;15.22;73.71;96447.75;5009989;28;24439;-77
2022/07/06 02:01:35;;;;;;;4.85;1.67;;;;;;;15.14;74.10;96450.06;5010259;28;24452;-77
2022/07/06 02:04:02;;;;;;;3.58;1.55;;;;;;;15.15;74.30;96450.91;5002128;28;24452;-77
2022/07/06 02:06:28;;;;;;;3.25;1.40;;;;;;;15.09;75.08;96456.53;5011673;28;24440;-78
2022/07/06 02:08:56;;;;;;;2.50;1.60;;;;;;;14.94;75.93;96461.06;5014133;28;24451;-78
2022/07/06 02:11:22;;;;;;;3.25;1.58;;;;;;;14.98;75.65;96449.47;5014243;28;24443;-78
2022/07/06 02:13:50;;;;;;;4.93;1.60;;;;;;;15.01;76.04;96449.25;5014239;28;24466;-77
2022/07/06 02:16:16;;;;;;;3.85;1.83;;;;;;;14.69;77.87;96447.09;5013958;28;24486;-78
2022/07/06 02:18:43;;;;;;;1.90;1.40;;;;;;;14.75;78.29;96444.06;5013913;28;24447;-77
2022/07/06 02:21:09;;;;;;;2.55;1.35;;;;;;;14.63;79.26;96449.28;5014139;28;24440;-76
2022/07/06 02:23:36;;;;;;;2.17;1.52;;;;;;;14.60;80.29;96452.94;5013953;28;24440;-77
2022/07/06 02:26:03;;;;;;;3.58;1.50;;;;;;;14.74;79.41;96447.63;5013718;28;24993;-77
2022/07/06 02:28:30;;;;;;;3.03;1.60;;;;;;;14.95;78.43;96452.31;5013405;28;24475;-77
2022/07/06 02:30:58;;;;;;;5.35;1.80;;;;;;;15.02;78.10;96453.56;5013960;28;24482;-77
2022/07/06 02:33:24;;;;;;;2.00;1.40;;;;;;;15.08;78.44;96455.72;5013980;28;24440;-77
2022/07/06 02:35:51;;;;;;;2.47;1.77;;;;;;;15.11;78.03;96455.50;5013898;28;24440;-78
2022/07/06 02:38:17;;;;;;;2.40;1.48;;;;;;;15.00;77.94;96460.63;5013359;28;24436;-78
2022/07/06 02:40:43;;;;;;;2.65;1.67;;;;;;;14.63;79.88;96464.94;5013670;28;24467;-78
2022/07/06 02:43:10;;;;;;;3.35;1.90;;;;;;;14.64;80.47;96470.03;5013655;28;24447;-78
2022/07/06 02:45:37;;;;;;;5.10;1.97;;;;;;;14.87;79.42;96459.81;5013511;28;24806;-78
2022/07/06 02:48:05;;;;;;;3.30;1.93;;;;;;;14.83;79.05;96467.03;5013268;28;24463;-77
2022/07/06 02:50:31;;;;;;;2.33;1.60;;;;;;;15.07;77.56;96464.50;5008274;28;24447;-78
2022/07/06 02:52:58;;;;;;;2.60;1.52;;;;;;;15.12;77.94;96466.78;5013337;28;24439;-78
2022/07/06 02:55:25;;;;;;;2.13;1.42;;;;;;;15.14;77.45;96468.34;5012962;28;24440;-77
2022/07/06 02:57:51;;;;;;;2.30;1.67;;;;;;;15.13;77.96;96468.44;5012833;28;24444;-77
2022/07/06 03:00:17;;;;;;;2.37;1.50;;;;;;;15.05;78.33;96466.34;5013183;28;24452;-78
2022/07/06 03:02:44;;;;;;;4.28;1.70;;;;;;;15.00;78.67;96468.47;5013351;28;24455;-78
2022/07/06 03:05:12;;;;;;;2.53;1.67;;;;;;;14.99;79.02;96472.03;5012869;28;25058;-78
2022/07/06 03:07:38;;;;;;;3.13;1.83;;;;;;;14.99;78.93;96478.06;5012746;28;24464;-78
2022/07/06 03:10:06;;;;;;;1.73;1.40;;;;;;;15.01;78.06;96483.16;5013183;28;24444;-78
2022/07/06 03:12:32;;;;;;;3.42;1.95;;;;;;;15.20;77.14;96482.72;5012764;28;25183;-78
2022/07/06 03:14:59;;;;;;;3.85;2.13;;;;;;;14.89;78.94;96487.47;5012844;28;24443;-78
2022/07/06 03:17:25;;;;;;;2.83;1.70;;;;;;;14.84;79.60;96486.13;5012089;28;24444;-77
2022/07/06 03:19:52;;;;;;;6.78;1.77;;;;;;;14.85;79.68;96478.19;5012815;28;24452;-78
2022/07/06 03:22:20;;;;;;;2.67;1.70;;;;;;;14.82;80.20;96486.22;5012599;28;24470;-78
2022/07/06 03:24:46;;;;;;;3.75;1.90;;;;;;;14.74;80.37;96486.72;5012527;28;24826;-77
2022/07/06 03:27:13;;;;;;;2.72;1.80;;;;;;;14.80;80.83;96484.66;5010425;28;25016;-78
2022/07/06 03:29:39;;;;;;;3.33;2.05;;;;;;;14.66;81.57;96491.63;5010320;28;24440;-78
2022/07/06 03:32:06;;;;;;;5.70;2.10;;;;;;;14.63;82.29;96481.41;5012476;28;24491;-77
2022/07/06 03:34:33;;;;;;;2.50;1.95;;;;;;;14.74;82.27;96488.50;5012328;28;24799;-78
2022/07/06 03:36:59;;;;;;;2.70;1.80;;;;;;;14.84;81.78;96486.13;5011418;28;24499;-77
2022/07/06 03:39:27;;;;;;;3.83;2.15;;;;;;;15.05;80.21;96483.78;5012489;28;24455;-78
2022/07/06 03:41:53;;;;;;;2.50;1.60;;;;;;;14.95;80.44;96483.59;5011669;28;24491;-78
2022/07/06 03:44:20;;;;;;;2.85;1.77;;;;;;;14.77;82.32;96486.53;5012582;28;24440;-76
2022/07/06 03:46:46;;;;;;;3.08;1.75;;;;;;;14.76;82.38;96487.47;5012166;28;24436;-77
2022/07/06 03:49:12;;;;;;;3.25;2.05;;;;;;;14.71;82.65;96483.50;5012316;28;24460;-77
2022/07/06 03:51:40;;;;;;;3.03;2.00;;;;;;;14.77;82.38;96478.69;5003833;28;24444;-77
2022/07/06 03:54:06;;;;;;;6.15;2.38;;;;;;;14.67;83.68;96485.47;5012341;28;24443;-77
2022/07/06 03:56:34;;;;;;;2.67;1.90;;;;;;;14.73;83.23;96487.69;5011936;28;24436;-77
2022/07/06 03:59:04;;;;;;;2.60;2.03;;;;;;;14.81;83.15;96489.75;5032964;23;24461;-74
2022/07/06 04:01:30;;;;;;;3.97;2.13;;;;;;;14.83;83.11;96493.13;5011696;28;24858;-75
2022/07/06 04:03:57;;;;;;;2.80;1.90;;;;;;;14.85;83.16;96486.00;5011149;28;25020;-75
2022/07/06 04:06:24;;;;;;;2.67;1.70;;;;;;;14.88;82.56;96493.63;5010789;28;25043;-76
2022/07/06 04:08:50;;;;;;;2.55;1.83;;;;;;;14.89;82.47;96491.84;5011043;28;24464;-75
2022/07/06 04:11:17;;;;;;;4.38;1.85;;;;;;;14.85;82.96;96493.81;5008542;28;24436;-75
2022/07/06 04:13:45;;;;;;;2.97;1.73;;;;;;;14.86;83.38;96489.44;5011574;28;24888;-76
2022/07/06 04:16:11;;;;;;;2.90;2.00;;;;;;;14.86;83.61;96495.47;5011144;28;24436;-75
2022/07/06 04:18:37;;;;;;;2.42;2.00;;;;;;;14.79;83.87;96498.63;5010786;28;24444;-75
2022/07/06 04:21:04;;;;;;;4.88;2.17;;;;;;;14.69;83.92;96501.03;5008708;28;24984;-75
2022/07/06 04:23:31;;;;;;;2.83;2.00;;;;;;;14.49;86.68;96497.09;5011088;28;24440;-75
2022/07/06 04:25:58;;;;;;;2.83;1.95;;;;;;;14.64;85.82;96488.28;5005320;28;24487;-75
2022/07/06 04:28:24;;;;;;;5.30;2.47;;;;;;;14.79;85.11;96503.84;5003224;28;24547;-75
2022/07/06 04:30:52;;;;;;;3.47;2.10;;;;;;;14.56;86.59;96498.41;5010620;28;24442;-75
2022/07/06 04:33:18;;;;;;;5.00;3.10;;;;;;;14.29;89.66;96501.88;5009223;28;24443;-76
2022/07/06 04:35:45;;;;;;;5.28;2.83;;;;;;;14.10;90.76;96498.81;5008826;28;24985;-75
2022/07/06 04:38:11;;;;;;;4.20;2.90;;;;;;;14.05;91.87;96500.88;5010215;28;24852;-75
2022/07/06 04:40:38;;;;;;;5.13;2.53;;;;;;;14.23;91.92;96501.44;5007447;28;24846;-75
2022/07/06 04:43:05;;;;;;;3.30;2.40;;;;;;;14.21;91.94;96505.94;5010842;28;24563;-75
2022/07/06 04:45:31;;;;;;;5.03;2.67;;;;;;;14.14;93.05;96505.50;5008401;28;24440;-75
2022/07/06 04:47:59;;;;;;;4.15;2.83;;;;;;;14.17;93.54;96505.28;5010265;28;24523;-75
2022/07/06 04:50:26;;;;;;;5.33;2.93;;;;;;;14.07;94.19;96506.81;5011026;28;24475;-75
2022/07/06 04:52:52;;;;;;;4.63;2.70;;;;;;;14.25;94.09;96512.59;5010623;28;24433;-75
2022/07/06 04:55:19;;;;;;;6.07;3.30;;;;;;;14.34;93.25;96504.16;5010128;28;24976;-75
2022/07/06 04:57:45;;;;;;;4.72;2.75;;;;;;;14.35;94.02;96507.59;5010227;28;24459;-75
2022/07/06 05:00:13;;;;;;;6.00;3.08;;;;;;;14.54;92.01;96502.91;5006931;28;24848;-75
2022/07/06 05:02:39;;;;;;;4.70;2.72;;;;;;;14.70;90.41;96498.31;5009551;28;24432;-75
2022/07/06 05:05:09;;;;;;;6.28;2.85;;;;;;;14.94;89.94;96498.44;5007655;28;24976;-75
2022/07/06 05:07:39;;;;;;;4.88;2.67;;;;;;;14.74;90.88;96506.75;5009428;28;24451;-75
2022/07/06 05:10:07;;;;;;;4.38;2.50;;;;;;;14.64;91.31;96509.13;5009879;28;25011;-75
2022/07/06 05:12:33;;;;;;;10.30;3.20;;;;;;;14.85;89.94;96514.69;5007916;28;24436;-74
2022/07/06 05:15:00;;;;;;;3.03;2.50;;;;;;;15.03;89.22;96512.59;5010107;28;24432;-73
2022/07/06 05:17:28;;;;;;;3.83;2.60;;;;;;;15.00;89.61;96516.25;5004016;28;24985;-73
2022/07/06 05:19:54;;;;;;;5.90;2.97;;;;;;;15.14;89.62;96514.47;5007061;28;24490;-73
2022/07/06 05:22:22;;;;;;;4.60;2.70;;;;;;;14.98;90.37;96519.88;5001844;28;24440;-73
2022/07/06 05:24:48;;;;;;;10.02;3.33;;;;;;;14.76;90.97;96513.56;5003305;28;24433;-73
2022/07/06 05:27:15;;;;;;;6.30;2.67;;;;;;;15.00;90.56;96521.47;5001818;28;24526;-73
2022/07/06 05:29:41;;;;;;;4.15;2.47;;;;;;;15.17;89.28;96519.50;5009921;28;25020;-73
2022/07/06 05:32:08;;;;;;;5.87;2.80;;;;;;;15.35;88.00;96519.97;5009623;28;24435;-73
2022/07/06 05:34:36;;;;;;;5.50;2.53;;;;;;;15.39;87.43;96526.66;5008666;28;24448;-73
2022/07/06 05:37:03;;;;;;;3.22;2.08;;;;;;;15.42;89.88;96521.19;5009499;28;24539;-73
2022/07/06 05:39:30;;;;;;;8.48;2.80;;;;;;;15.47;86.93;96519.13;5004820;28;24464;-73
2022/07/06 05:41:57;;;;;;;4.57;2.80;;;;;;;15.29;88.66;96523.00;5005922;28;24441;-73
2022/07/06 05:44:23;;;;;;;8.07;2.85;;;;;;;15.38;89.04;96522.34;5003870;28;24447;-73
2022/07/06 05:46:50;;;;;;;5.07;2.80;;;;;;;15.49;87.06;96518.03;5007432;28;24453;-73
2022/07/06 05:51:59;;;;;;;7.18;2.90;;;;;;;15.41;87.97;96520.38;4971925;28;24440;-74
2022/07/06 05:54:26;;;;;;;5.07;2.75;;;;;;;15.53;85.80;96525.66;5001140;28;24436;-74
2022/07/06 05:56:54;;;;;;;7.47;3.00;;;;;;;15.49;86.91;96522.44;5008936;28;24722;-74
2022/07/06 05:59:20;;;;;;;3.92;2.50;;;;;;;15.71;84.85;96533.06;5006135;28;24846;-73
2022/07/06 06:01:47;;;;;;;6.20;2.30;;;;;;;15.82;87.71;96528.84;5004738;28;24448;-73
2022/07/06 06:04:13;;;;;;;7.30;2.10;;;;;;;16.01;84.41;96528.38;5009003;28;24441;-73
2022/07/06 06:06:40;;;;;;;6.53;2.17;;;;;;;16.27;82.90;96526.47;5008788;28;24440;-73
2022/07/06 06:09:06;;;;;;;4.28;2.28;;;;;;;16.31;81.64;96536.56;5006934;28;24444;-73
2022/07/06 06:11:33;;;;;;;5.33;2.57;;;;;;;16.32;82.28;96538.25;5006306;28;24437;-72
2022/07/06 06:14:00;;;;;;;6.50;2.47;;;;;;;16.23;83.32;96536.31;5008047;28;24440;-72
2022/07/06 06:16:27;;;;;;;4.18;2.10;;;;;;;16.21;82.69;96538.22;5009006;28;24443;-73
2022/07/06 06:18:53;;;;;;;3.85;2.00;;;;;;;16.52;80.61;96543.78;5009729;28;24853;-73
2022/07/06 06:21:20;;;;;;;8.23;2.70;;;;;;;17.23;79.58;96544.56;5009320;28;24442;-73
2022/07/06 06:23:46;;;;;;;3.08;1.90;;;;;;;17.15;77.05;96545.97;5006362;28;24433;-73
2022/07/06 06:26:12;;;;;;;7.30;2.35;;;;;;;17.18;75.59;96543.13;5009113;28;24437;-73
2022/07/06 06:28:41;;;;;;;2.83;1.70;;;;;;;17.26;76.03;96541.69;5008679;28;24464;-73
2022/07/06 06:31:09;;;;;;;2.97;1.95;;;;;;;17.50;75.36;96544.19;5009465;28;24433;-73
2022/07/06 06:33:35;;;;;;;7.43;2.35;;;;;;;17.33;74.72;96548.13;5009103;28;24440;-72
2022/07/06 06:36:02;;;;;;;6.47;2.75;;;;;;;16.87;77.06;96546.41;5008966;28;24532;-72
2022/07/06 06:38:29;;;;;;;7.53;2.50;;;;;;;16.56;78.41;96548.66;5001671;28;24440;-73
2022/07/06 06:40:56;;;;;;;3.87;2.20;;;;;;;16.54;78.62;96554.94;5008467;28;24943;-73
2022/07/06 06:43:22;;;;;;;7.22;2.63;;;;;;;16.35;79.61;96550.25;5008903;28;24444;-73
2022/07/06 06:45:49;;;;;;;3.50;2.00;;;;;;;16.58;78.83;96543.34;5003521;28;24440;-72
2022/07/06 06:48:17;;;;;;;3.70;1.80;;;;;;;17.01;77.79;96547.97;5003260;28;25000;-73
2022/07/06 06:50:44;;;;;;;5.30;2.20;;;;;;;17.20;74.59;96556.09;5008966;28;24440;-73
2022/07/06 06:53:10;;;;;;;3.33;2.20;;;;;;;17.44;72.08;96549.91;5011218;28;24491;-72
2022/07/06 06:55:36;;;;;;;8.48;2.05;;;;;;;17.53;72.56;96552.63;5010699;28;24437;-72
2022/07/06 06:58:03;;;;;;;4.93;2.15;;;;;;;18.22;69.23;96547.19;5004163;28;24464;-72
2022/07/06 07:00:30;;;;;;;3.85;2.13;;;;;;;18.15;67.54;96551.25;5012395;28;25007;-72
2022/07/06 07:02:56;;;;;;;6.37;2.60;;;;;;;17.85;69.43;96544.06;5012804;28;24440;-72
2022/07/06 07:05:24;;;;;;;3.35;1.90;;;;;;;17.83;72.53;96545.97;5010593;28;25079;-72
2022/07/06 07:07:50;;;;;;;8.63;2.40;;;;;;;18.96;72.16;96549.00;5011933;28;25075;-73
2022/07/06 07:10:17;;;;;;;5.50;2.50;;;;;;;19.20;67.37;96544.28;5012234;28;24444;-73
2022/07/06 07:12:45;;;;;;;4.18;1.95;;;;;;;18.97;65.84;96540.16;5012315;28;25007;-73
2022/07/06 07:15:12;;;;;;;4.75;2.47;;;;;;;18.85;64.79;96542.03;5005819;28;24952;-73
2022/07/06 07:17:38;;;;;;;3.80;2.47;;;;;;;19.27;64.20;96539.34;5008270;28;24523;-67
2022/07/06 07:20:06;;;;;;;4.25;2.00;;;;;;;19.45;66.34;96537.78;5011389;28;24514;-73
2022/07/06 07:22:34;;;;;;;4.05;2.22;;;;;;;19.16;64.13;96540.28;5010840;28;24833;-73
2022/07/06 07:25:00;;;;;;;9.63;2.67;;;;;;;19.41;63.15;96539.00;5007912;28;24499;-73
2022/07/06 07:27:27;;;;;;;2.78;2.20;;;;;;;19.16;62.81;96535.03;5003648;28;24452;-72
2022/07/06 07:29:54;;;;;;;5.28;2.25;;;;;;;18.91;63.54;96540.69;5012157;28;24868;-72
2022/07/06 07:32:20;;;;;;;4.15;1.85;;;;;;;19.14;62.65;96542.22;5011217;28;25011;-71
2022/07/06 07:34:47;;;;;;;2.92;2.22;;;;;;;18.79;63.30;96535.50;5004101;28;24523;-71
2022/07/06 07:37:13;;;;;;;4.35;2.15;;;;;;;18.18;65.02;96532.66;5010830;28;24443;-70
2022/07/06 07:39:42;;;;;;;5.22;2.17;;;;;;;18.77;63.66;96528.72;5011331;28;24451;-71
2022/07/06 07:42:08;;;;;;;5.30;2.03;;;;;;;18.90;63.07;96531.97;5011860;28;24491;-71
2022/07/06 07:44:35;;;;;;;4.40;2.08;;;;;;;18.69;64.97;96538.97;5011590;28;24490;-71
2022/07/06 07:47:01;;;;;;;5.30;2.17;;;;;;;18.34;64.22;96533.06;5007557;28;25015;-70
2022/07/06 07:49:28;;;;;;;5.15;2.20;;;;;;;18.75;64.67;96530.63;5010133;28;24820;-71
2022/07/06 07:51:54;;;;;;;3.20;2.00;;;;;;;18.62;64.36;96525.56;5010724;28;24845;-71
2022/07/06 07:54:21;;;;;;;9.13;2.03;;;;;;;19.12;64.44;96520.50;5010683;28;24996;-71
2022/07/06 07:56:49;;;;;;;5.03;1.98;;;;;;;19.02;63.51;96516.97;5008517;28;24510;-71
2022/07/06 07:59:16;;;;;;;9.27;1.95;;;;;;;19.37;63.61;96516.59;5010642;28;24436;-71
2022/07/06 08:01:42;;;;;;;3.85;1.73;;;;;;;19.64;62.68;96520.47;5011164;28;24847;-71
2022/07/06 08:04:08;;;;;;;7.70;3.13;;;;;;;20.46;61.21;96523.59;5009744;28;24503;-71
2022/07/06 08:06:35;;;;;;;3.90;1.80;;;;;;;20.09;59.40;96517.34;5010077;28;24444;-71
2022/07/06 08:09:03;;;;;;;4.13;1.88;;;;;;;19.69;61.33;96523.50;5009898;28;24514;-71
2022/07/06 08:11:29;;;;;;;6.20;2.50;;;;;;;20.10;60.41;96530.38;5009160;28;24456;-71
2022/07/06 08:13:57;;;;;;;4.72;2.10;;;;;;;20.20;58.82;96519.84;5011213;28;24451;-71
2022/07/06 08:16:23;;;;;;;4.88;2.05;;;;;;;20.18;57.95;96525.28;5009241;28;24444;-71
2022/07/06 08:18:50;;;;;;;4.22;2.03;;;;;;;20.27;58.01;96516.53;5008649;28;24437;-71
2022/07/06 08:21:16;;;;;;;8.98;3.17;;;;;;;21.01;61.56;96523.84;5010763;28;24432;-71
2022/07/06 08:23:43;;;;;;;3.65;2.00;;;;;;;20.36;56.34;96519.31;5011099;28;24436;-71
2022/07/06 08:26:09;;;;;;;9.48;2.40;;;;;;;19.49;59.32;96519.97;5011332;28;24428;-71
2022/07/06 08:28:36;;;;;;;4.93;2.28;;;;;;;19.98;57.40;96520.94;5009243;28;24440;-71
2022/07/06 08:31:03;;;;;;;169.60;23.95;;;;;;;20.64;62.28;96528.19;5010954;28;24483;-71
2022/07/06 08:33:30;;;;;;;15.67;2.93;;;;;;;21.47;59.42;96527.47;5010438;28;24436;-71
2022/07/06 08:35:56;;;;;;;6.88;2.17;;;;;;;21.47;55.12;96521.38;5010732;28;24865;-71
2022/07/06 08:38:23;;;;;;;5.40;2.17;;;;;;;21.19;52.97;96533.63;5010567;28;24444;-71
2022/07/06 08:40:51;;;;;;;4.10;2.10;;;;;;;22.01;51.69;96524.13;5010234;28;24479;-71
2022/07/06 08:43:17;;;;;;;4.50;2.00;;;;;;;21.76;51.47;96526.47;5003903;28;24518;-71
2022/07/06 08:45:46;;;;;;;4.70;2.40;;;;;;;20.70;54.08;96525.84;4998080;28;25001;-71
2022/07/06 08:48:15;;;;;;;4.07;2.30;;;;;;;20.82;54.99;96525.69;5009369;28;25005;-71
2022/07/06 08:50:41;;;;;;;6.43;2.10;;;;;;;21.48;58.49;96523.84;5010998;28;24464;-71
2022/07/06 08:53:08;;;;;;;3.65;1.70;;;;;;;21.18;55.08;96527.53;5004797;28;24444;-71
2022/07/06 08:55:35;;;;;;;2.80;1.70;;;;;;;22.16;57.46;96518.22;5010299;28;25067;-71
2022/07/06 08:58:04;;;;;;;6.38;2.30;;;;;;;20.90;54.96;96523.16;5003727;28;24515;-71
2022/07/06 09:00:33;;;;;;;7.25;2.30;;;;;;;21.26;55.98;96527.66;5008088;28;24444;-71
2022/07/06 09:03:00;;;;;;;5.47;2.40;;;;;;;21.05;55.13;96526.19;5005131;28;24444;-71
2022/07/06 09:05:29;;;;;;;3.22;1.90;;;;;;;21.31;54.93;96529.03;5006103;28;24989;-71
2022/07/06 09:07:56;;;;;;;3.85;2.40;;;;;;;20.85;54.86;96534.13;5001391;28;24440;-71
2022/07/06 09:10:23;;;;;;;4.43;2.58;;;;;;;21.25;53.06;96539.16;5009891;28;24459;-71
2022/07/06 09:12:50;;;;;;;9.25;2.65;;;;;;;21.80;52.88;96530.47;5006345;28;24440;-71
2022/07/06 09:15:16;;;;;;;5.03;2.30;;;;;;;21.08;55.08;96531.19;5007321;28;24439;-71
2022/07/06 09:17:44;;;;;;;4.80;2.07;;;;;;;21.31;56.09;96523.75;5008850;28;24985;-71
2022/07/06 09:20:12;;;;;;;6.28;2.58;;;;;;;20.62;56.02;96535.41;5002409;28;24440;-71
2022/07/06 09:22:41;;;;;;;4.07;2.20;;;;;;;21.15;54.39;96534.91;5009947;28;24439;-71
2022/07/06 09:25:09;;;;;;;7.10;2.05;;;;;;;21.14;57.55;96539.34;5009952;28;24865;-71
2022/07/06 09:27:38;;;;;;;3.03;2.00;;;;;;;21.68;54.80;96536.94;5007949;28;24440;-71
2022/07/06 09:30:06;;;;;;;4.20;2.10;;;;;;;22.25;54.03;96532.34;5010208;28;24460;-71
2022/07/06 09:32:39;;;;;;;6.88;2.00;;;;;;;21.54;53.61;96542.69;5003051;28;24490;-71
2022/07/06 09:35:06;;;;;;;4.90;2.27;;;;;;;21.79;53.38;96541.19;5008038;28;24802;-71
2022/07/06 09:37:33;;;;;;;3.90;2.10;;;;;;;22.49;52.60;96541.44;4997665;28;24775;-70
2022/07/06 09:40:01;;;;;;;9.03;2.33;;;;;;;22.50;53.40;96545.75;5002661;28;24806;-71
2022/07/06 09:42:28;;;;;;;3.30;2.17;;;;;;;22.80;53.19;96547.97;5007714;28;24836;-71
2022/07/06 09:44:54;;;;;;;4.17;2.23;;;;;;;22.56;55.17;96537.22;5009302;28;24443;-71
2022/07/06 09:47:21;;;;;;;5.22;1.95;;;;;;;22.42;53.41;96538.59;5009284;28;24491;-68
2022/07/06 09:49:48;;;;;;;10.65;2.50;;;;;;;22.13;52.89;96536.94;5005449;28;24854;-71
2022/07/06 09:52:15;;;;;;;6.57;2.60;;;;;;;22.12;55.32;96545.03;5006120;28;24467;-71
2022/07/06 09:54:41;;;;;;;4.32;2.35;;;;;;;22.34;54.66;96546.44;5009501;28;24451;-71
2022/07/06 09:57:09;;;;;;;5.13;2.22;;;;;;;22.33;56.22;96547.41;5008830;28;24436;-71
2022/07/06 09:59:36;;;;;;;7.80;2.40;;;;;;;22.46;52.69;96553.97;5010711;28;24436;-71
2022/07/06 10:02:06;;;;;;;5.50;2.20;;;;;;;21.78;55.38;96564.09;5007510;28;24428;-71
2022/07/06 10:04:33;;;;;;;4.53;2.40;;;;;;;20.53;56.70;96566.00;5009228;28;24494;-71
2022/07/06 10:07:01;;;;;;;4.80;2.40;;;;;;;20.18;59.41;96558.63;5007502;28;24447;-71
2022/07/06 10:09:29;;;;;;;4.57;2.47;;;;;;;20.41;59.92;96565.28;5007267;28;25024;-71
2022/07/06 10:11:58;;;;;;;7.25;2.35;;;;;;;20.73;57.97;96569.50;5007398;28;24490;-71
2022/07/06 10:14:28;;;;;;;4.72;2.25;;;;;;;19.96;60.03;96555.28;5009583;28;24486;-71
2022/07/06 10:16:56;;;;;;;4.57;2.30;;;;;;;20.05;61.60;96570.22;5008917;28;24436;-71
2022/07/06 10:19:23;;;;;;;6.20;2.35;;;;;;;20.08;60.76;96568.31;5008269;28;24525;-71
2022/07/06 10:21:51;;;;;;;5.30;2.50;;;;;;;20.47;60.35;96564.75;5006352;28;24467;-71
2022/07/06 10:24:19;;;;;;;3.90;2.30;;;;;;;20.67;59.33;96570.03;5009173;28;24471;-72
2022/07/06 10:26:47;;;;;;;3.72;2.00;;;;;;;20.87;59.82;96571.66;5009341;28;24432;-71
2022/07/06 10:29:14;;;;;;;6.15;2.85;;;;;;;20.48;58.53;96570.84;5013407;28;24460;-71
2022/07/06 10:31:45;;;;;;;7.65;2.90;;;;;;;20.14;60.85;96576.47;5010117;28;24992;-71
2022/07/06 10:34:15;;;;;;;3.38;2.17;;;;;;;21.22;58.01;96575.50;5013248;28;24436;-72
2022/07/06 10:36:43;;;;;;;3.50;2.20;;;;;;;21.91;56.73;96561.94;5002126;28;24821;-72
2022/07/06 10:41:55;;;;;;;10.13;2.40;;;;;;;22.69;54.84;96559.63;5009680;28;25044;-71
2022/07/06 10:44:23;;;;;;;4.63;2.35;;;;;;;21.51;55.27;96564.91;5012770;28;24455;-71
2022/07/06 10:46:56;;;;;;;4.77;2.30;;;;;;;21.92;53.37;96560.97;5011824;28;24444;-71
2022/07/06 10:49:23;;;;;;;3.20;1.77;;;;;;;22.38;60.60;96568.91;5008498;28;24452;-71
2022/07/06 10:51:51;;;;;;;10.80;2.53;;;;;;;22.75;52.99;96565.28;5009094;28;25074;-71
2022/07/06 10:54:19;;;;;;;5.18;2.25;;;;;;;22.41;53.49;96565.97;5012548;28;25022;-71
2022/07/06 10:56:47;;;;;;;4.90;2.00;;;;;;;22.66;54.12;96567.84;5011783;28;24992;-71
2022/07/06 10:59:15;;;;;;;7.78;2.60;;;;;;;21.71;55.52;96568.28;5012699;28;24985;-71
2022/07/06 11:01:43;;;;;;;3.60;1.88;;;;;;;22.17;53.65;96556.84;5003104;28;24492;-71
2022/07/06 11:04:11;;;;;;;6.18;2.38;;;;;;;21.59;55.72;96569.47;5004419;28;24995;-71
2022/07/06 11:06:39;;;;;;;4.20;2.10;;;;;;;21.44;56.56;96564.66;5004616;28;24436;-71
2022/07/06 11:09:07;;;;;;;4.63;2.00;;;;;;;21.47;55.80;96568.81;5012624;28;25005;-71
2022/07/06 11:11:45;;;;;;;6.93;2.30;;;;;;;21.16;56.77;96557.63;5003971;28;24456;-71
2022/07/06 11:14:13;;;;;;;7.95;2.60;;;;;;;21.06;56.29;96552.38;5009339;28;25040;-71
2022/07/06 11:17:00;;;;;;;4.30;2.20;;;;;;;21.24;58.53;96542.75;5006696;28;24535;-70
2022/07/06 11:19:28;;;;;;;4.53;2.42;;;;;;;21.13;57.63;96557.91;5012517;28;24966;-71
2022/07/06 11:21:57;;;;;;;5.28;2.35;;;;;;;21.12;56.26;96561.53;5004370;28;25000;-71
2022/07/06 11:24:26;;;;;;;6.13;2.40;;;;;;;21.29;55.76;96559.97;5004286;28;25008;-72
2022/07/06 11:26:54;;;;;;;13.63;2.50;;;;;;;21.46;55.78;96557.41;5012118;28;24440;-71
2022/07/06 11:29:22;;;;;;;3.93;2.10;;;;;;;21.73;56.58;96545.25;5011386;28;24463;-71
2022/07/06 11:31:50;;;;;;;5.45;2.42;;;;;;;21.80;55.49;96556.84;5008665;28;24814;-71
2022/07/06 11:34:20;;;;;;;4.65;2.08;;;;;;;21.65;54.62;96547.78;5011590;28;24440;-71
2022/07/06 11:36:48;;;;;;;5.55;2.08;;;;;;;21.97;55.39;96544.69;5014320;28;25017;-72
2022/07/06 11:39:15;;;;;;;5.33;2.53;;;;;;;21.95;52.98;96544.00;5006143;28;24587;-72